Time,TemperatureF,DewpointF,PressureIn,WindDirection,WindDirectionDegrees,WindSpeedMPH,WindSpeedGustMPH,Humidity,HourlyPrecipIn,Conditions,Clouds,dailyrainin,SoftwareType,DateUTC
2013-04-02 00:00:00,56.2,51.7,30.07,West,270,0.0,-999.0,85,0.00,,,0.00,Wunderground v.1.15,2013-04-02 07:00:00,
2013-04-02 00:05:00,56.6,51.8,30.07,West,270,1.0,-999.0,84,0.00,,,0.00,Wunderground v.1.15,2013-04-02 07:05:00,
2013-04-02 00:10:00,56.6,51.8,30.07,West,270,1.0,-999.0,84,0.00,,,0.00,Wunderground v.1.15,2013-04-02 07:10:00,
2013-04-02 00:15:00,57.1,52.3,30.07,West,270,2.0,-999.0,84,0.00,,,0.00,Wunderground v.1.15,2013-04-02 07:15:00,
2013-04-02 00:20:00,57.1,52.3,30.07,West,270,2.0,-999.0,84,0.00,,,0.00,Wunderground v.1.15,2013-04-02 07:20:00,
2013-04-02 00:25:00,56.9,52.1,30.07,N/A,-737280,0.0,-999.0,84,0.00,,,0.00,Wunderground v.1.15,2013-04-02 07:25:00,
2013-04-02 00:30:00,56.9,52.1,30.07,N/A,-737280,0.0,-999.0,84,0.00,,,0.00,Wunderground v.1.15,2013-04-02 07:30:00,
2013-04-02 00:35:00,56.5,51.7,30.07,West,270,0.0,-999.0,84,0.00,,,0.00,Wunderground v.1.15,2013-04-02 07:35:00,
2013-04-02 00:40:00,56.5,51.7,30.07,West,270,0.0,-999.0,84,0.00,,,0.00,Wunderground v.1.15,2013-04-02 07:40:00,
2013-04-02 00:45:00,56.2,51.7,30.07,West,270,0.0,-999.0,85,0.00,,,0.00,Wunderground v.1.15,2013-04-02 07:45:00,
2013-04-02 00:50:00,56.2,51.7,30.07,West,270,0.0,-999.0,85,0.00,,,0.00,Wunderground v.1.15,2013-04-02 07:50:00,
2013-04-02 00:55:00,56.0,51.6,30.07,West,270,0.0,-999.0,85,0.00,,,0.00,Wunderground v.1.15,2013-04-02 07:55:00,
2013-04-02 01:00:00,55.9,51.8,30.07,West,270,0.0,-999.0,86,0.00,,,0.00,Wunderground v.1.15,2013-04-02 08:00:00,
2013-04-02 01:05:00,55.9,51.8,30.07,West,270,0.0,-999.0,86,0.00,,,0.00,Wunderground v.1.15,2013-04-02 08:05:00,
2013-04-02 01:10:00,55.9,51.8,30.07,West,270,0.0,-999.0,86,0.00,,,0.00,Wunderground v.1.15,2013-04-02 08:10:00,
2013-04-02 01:15:00,55.7,51.3,30.08,N/A,-737280,0.0,-999.0,85,0.00,,,0.00,Wunderground v.1.15,2013-04-02 08:15:00,
2013-04-02 01:20:00,55.7,51.3,30.08,N/A,-737280,0.0,-999.0,85,0.00,,,0.00,Wunderground v.1.15,2013-04-02 08:20:00,
2013-04-02 01:25:00,55.3,50.9,30.08,N/A,-737280,0.0,-999.0,85,0.00,,,0.00,Wunderground v.1.15,2013-04-02 08:25:00,
2013-04-02 01:30:00,55.3,50.9,30.08,N/A,-737280,0.0,-999.0,85,0.00,,,0.00,Wunderground v.1.15,2013-04-02 08:30:00,
2013-04-02 01:35:00,54.9,50.8,30.08,N/A,-737280,0.0,-999.0,86,0.00,,,0.00,Wunderground v.1.15,2013-04-02 08:35:00,
2013-04-02 01:40:00,54.9,50.8,30.08,N/A,-737280,0.0,-999.0,86,0.00,,,0.00,Wunderground v.1.15,2013-04-02 08:40:00,
2013-04-02 01:45:00,54.4,50.3,30.08,N/A,-737280,0.0,-999.0,86,0.00,,,0.00,Wunderground v.1.15,2013-04-02 08:45:00,
2013-04-02 01:50:00,54.4,50.3,30.08,N/A,-737280,0.0,-999.0,86,0.00,,,0.00,Wunderground v.1.15,2013-04-02 08:50:00,
2013-04-02 01:55:00,54.3,50.5,30.08,West,270,0.0,-999.0,87,0.00,,,0.00,Wunderground v.1.15,2013-04-02 08:55:00,
2013-04-02 02:00:00,54.3,50.5,30.08,West,270,0.0,-999.0,87,0.00,,,0.00,Wunderground v.1.15,2013-04-02 09:00:00,
2013-04-02 02:05:00,54.1,50.3,30.08,N/A,-737280,0.0,-999.0,87,0.00,,,0.00,Wunderground v.1.15,2013-04-02 09:05:00,
2013-04-02 02:10:00,54.1,50.3,30.08,N/A,-737280,0.0,-999.0,87,0.00,,,0.00,Wunderground v.1.15,2013-04-02 09:10:00,
2013-04-02 02:15:00,54.0,50.2,30.08,N/A,-737280,0.0,-999.0,87,0.00,,,0.00,Wunderground v.1.15,2013-04-02 09:15:00,
2013-04-02 02:20:00,54.0,50.2,30.08,N/A,-737280,0.0,-999.0,87,0.00,,,0.00,Wunderground v.1.15,2013-04-02 09:20:00,
2013-04-02 02:25:00,54.5,51.0,30.08,N/A,-737280,0.0,-999.0,88,0.00,,,0.00,Wunderground v.1.15,2013-04-02 09:25:00,
2013-04-02 02:30:00,54.5,51.0,30.08,N/A,-737280,0.0,-999.0,88,0.00,,,0.00,Wunderground v.1.15,2013-04-02 09:30:00,
2013-04-02 02:35:00,54.6,50.8,30.07,N/A,-737280,0.0,-999.0,87,0.00,,,0.00,Wunderground v.1.15,2013-04-02 09:35:00,
2013-04-02 02:40:00,54.6,50.8,30.07,N/A,-737280,0.0,-999.0,87,0.00,,,0.00,Wunderground v.1.15,2013-04-02 09:40:00,
2013-04-02 02:45:00,54.7,51.2,30.08,N/A,-737280,0.0,-999.0,88,0.00,,,0.00,Wunderground v.1.15,2013-04-02 09:45:00,
2013-04-02 02:50:00,54.7,51.2,30.08,N/A,-737280,0.0,-999.0,88,0.00,,,0.00,Wunderground v.1.15,2013-04-02 09:50:00,
2013-04-02 02:55:00,54.9,51.4,30.08,N/A,-737280,0.0,-999.0,88,0.00,,,0.00,Wunderground v.1.15,2013-04-02 09:55:00,
2013-04-02 03:00:00,54.9,51.4,30.08,N/A,-737280,0.0,-999.0,88,0.00,,,0.00,Wunderground v.1.15,2013-04-02 10:00:00,
2013-04-02 03:05:00,55.1,51.6,30.08,N/A,-737280,0.0,-999.0,88,0.00,,,0.00,Wunderground v.1.15,2013-04-02 10:05:00,
2013-04-02 03:10:00,55.1,51.6,30.08,N/A,-737280,0.0,-999.0,88,0.00,,,0.00,Wunderground v.1.15,2013-04-02 10:10:00,
2013-04-02 03:15:00,55.6,52.1,30.08,N/A,-737280,0.0,-999.0,88,0.00,,,0.00,Wunderground v.1.15,2013-04-02 10:15:00,
2013-04-02 03:20:00,55.6,52.1,30.08,N/A,-737280,0.0,-999.0,88,0.00,,,0.00,Wunderground v.1.15,2013-04-02 10:20:00,
2013-04-02 03:25:00,55.9,52.4,30.08,N/A,-737280,0.0,-999.0,88,0.00,,,0.00,Wunderground v.1.15,2013-04-02 10:25:00,
2013-04-02 03:30:00,55.9,52.4,30.08,N/A,-737280,0.0,-999.0,88,0.00,,,0.00,Wunderground v.1.15,2013-04-02 10:30:00,
2013-04-02 03:35:00,56.2,52.4,30.07,N/A,-737280,0.0,-999.0,87,0.00,,,0.00,Wunderground v.1.15,2013-04-02 10:35:00,
2013-04-02 03:40:00,56.2,52.4,30.07,N/A,-737280,0.0,-999.0,87,0.00,,,0.00,Wunderground v.1.15,2013-04-02 10:40:00,
2013-04-02 03:45:00,56.6,52.8,30.07,West,270,0.0,-999.0,87,0.00,,,0.00,Wunderground v.1.15,2013-04-02 10:45:00,
2013-04-02 03:50:00,56.6,52.8,30.07,West,270,0.0,-999.0,87,0.00,,,0.00,Wunderground v.1.15,2013-04-02 10:50:00,
2013-04-02 03:55:00,56.9,53.1,30.07,West,270,0.0,-999.0,87,0.00,,,0.00,Wunderground v.1.15,2013-04-02 10:55:00,
2013-04-02 04:00:00,56.9,53.1,30.07,West,270,0.0,-999.0,87,0.00,,,0.00,Wunderground v.1.15,2013-04-02 11:00:00,
2013-04-02 04:05:00,56.9,53.1,30.07,N/A,-737280,0.0,-999.0,87,0.00,,,0.00,Wunderground v.1.15,2013-04-02 11:05:00,
2013-04-02 04:10:00,56.9,53.1,30.07,N/A,-737280,0.0,-999.0,87,0.00,,,0.00,Wunderground v.1.15,2013-04-02 11:10:00,
2013-04-02 04:15:00,56.9,53.1,30.07,N/A,-737280,0.0,-999.0,87,0.00,,,0.00,Wunderground v.1.15,2013-04-02 11:15:00,
2013-04-02 04:20:00,56.9,53.1,30.07,N/A,-737280,0.0,-999.0,87,0.00,,,0.00,Wunderground v.1.15,2013-04-02 11:20:00,
2013-04-02 04:25:00,57.0,52.9,30.07,N/A,-737280,0.0,-999.0,86,0.00,,,0.00,Wunderground v.1.15,2013-04-02 11:25:00,
2013-04-02 04:30:00,57.0,52.9,30.07,N/A,-737280,0.0,-999.0,86,0.00,,,0.00,Wunderground v.1.15,2013-04-02 11:30:00,
2013-04-02 04:35:00,57.1,53.0,30.07,N/A,-737280,0.0,-999.0,86,0.00,,,0.00,Wunderground v.1.15,2013-04-02 11:35:00,
2013-04-02 04:40:00,57.1,53.0,30.07,N/A,-737280,0.0,-999.0,86,0.00,,,0.00,Wunderground v.1.15,2013-04-02 11:40:00,
2013-04-02 04:45:00,57.1,53.0,30.07,N/A,-737280,0.0,-999.0,86,0.00,,,0.00,Wunderground v.1.15,2013-04-02 11:45:00,
2013-04-02 04:50:00,57.1,53.0,30.07,N/A,-737280,0.0,-999.0,86,0.00,,,0.00,Wunderground v.1.15,2013-04-02 11:50:00,
2013-04-02 04:55:00,57.2,53.0,30.07,N/A,-737280,0.0,-999.0,86,0.00,,,0.00,Wunderground v.1.15,2013-04-02 11:55:00,
2013-04-02 05:00:00,57.2,53.0,30.07,N/A,-737280,0.0,-999.0,86,0.00,,,0.00,Wunderground v.1.15,2013-04-02 12:00:00,
2013-04-02 05:05:00,57.2,53.0,30.07,N/A,-737280,0.0,-999.0,86,0.00,,,0.00,Wunderground v.1.15,2013-04-02 12:05:00,
2013-04-02 05:10:00,57.2,53.0,30.07,N/A,-737280,0.0,-999.0,86,0.00,,,0.00,Wunderground v.1.15,2013-04-02 12:10:00,
2013-04-02 05:15:00,57.3,53.1,30.07,N/A,-737280,0.0,-999.0,86,0.00,,,0.00,Wunderground v.1.15,2013-04-02 12:15:00,
2013-04-02 05:20:00,57.3,53.1,30.07,N/A,-737280,0.0,-999.0,86,0.00,,,0.00,Wunderground v.1.15,2013-04-02 12:20:00,
2013-04-02 05:25:00,57.3,53.1,30.07,N/A,-737280,0.0,-999.0,86,0.00,,,0.00,Wunderground v.1.15,2013-04-02 12:25:00,
2013-04-02 05:30:00,57.3,53.1,30.07,N/A,-737280,0.0,-999.0,86,0.00,,,0.00,Wunderground v.1.15,2013-04-02 12:30:00,
2013-04-02 05:35:00,57.4,53.2,30.07,N/A,-737280,0.0,-999.0,86,0.00,,,0.00,Wunderground v.1.15,2013-04-02 12:35:00,
2013-04-02 05:40:00,57.4,53.2,30.07,N/A,-737280,0.0,-999.0,86,0.00,,,0.00,Wunderground v.1.15,2013-04-02 12:40:00,
2013-04-02 05:45:00,57.5,53.3,30.07,N/A,-737280,0.0,-999.0,86,0.00,,,0.00,Wunderground v.1.15,2013-04-02 12:45:00,
2013-04-02 05:50:00,57.5,53.3,30.07,N/A,-737280,0.0,-999.0,86,0.00,,,0.00,Wunderground v.1.15,2013-04-02 12:50:00,
2013-04-02 05:55:00,57.4,53.2,30.07,N/A,-737280,0.0,-999.0,86,0.00,,,0.00,Wunderground v.1.15,2013-04-02 12:55:00,
2013-04-02 06:00:00,57.4,53.2,30.07,N/A,-737280,0.0,-999.0,86,0.00,,,0.00,Wunderground v.1.15,2013-04-02 13:00:00,
2013-04-02 06:05:00,57.4,53.2,30.07,N/A,-737280,0.0,-999.0,86,0.00,,,0.00,Wunderground v.1.15,2013-04-02 13:05:00,
2013-04-02 06:10:00,57.4,53.2,30.07,N/A,-737280,0.0,-999.0,86,0.00,,,0.00,Wunderground v.1.15,2013-04-02 13:10:00,
2013-04-02 06:15:00,57.4,53.2,30.06,N/A,-737280,0.0,-999.0,86,0.00,,,0.00,Wunderground v.1.15,2013-04-02 13:15:00,
2013-04-02 06:20:00,57.4,53.2,30.06,N/A,-737280,0.0,-999.0,86,0.00,,,0.00,Wunderground v.1.15,2013-04-02 13:20:00,
2013-04-02 06:25:00,57.3,53.1,30.06,N/A,-737280,0.0,-999.0,86,0.00,,,0.00,Wunderground v.1.15,2013-04-02 13:25:00,
2013-04-02 06:30:00,57.3,53.1,30.06,N/A,-737280,0.0,-999.0,86,0.00,,,0.00,Wunderground v.1.15,2013-04-02 13:30:00,
2013-04-02 06:35:00,57.1,53.0,30.06,N/A,-737280,0.0,-999.0,86,0.00,,,0.00,Wunderground v.1.15,2013-04-02 13:35:00,
2013-04-02 06:40:00,57.1,53.0,30.06,N/A,-737280,0.0,-999.0,86,0.00,,,0.00,Wunderground v.1.15,2013-04-02 13:40:00,
2013-04-02 06:45:00,57.0,52.9,30.07,N/A,-737280,0.0,-999.0,86,0.00,,,0.00,Wunderground v.1.15,2013-04-02 13:45:00,
2013-04-02 06:50:00,57.0,52.9,30.07,N/A,-737280,0.0,-999.0,86,0.00,,,0.00,Wunderground v.1.15,2013-04-02 13:50:00,
2013-04-02 06:55:00,56.9,52.8,30.07,N/A,-737280,0.0,-999.0,86,0.00,,,0.00,Wunderground v.1.15,2013-04-02 13:55:00,
2013-04-02 07:00:00,56.9,52.8,30.07,N/A,-737280,0.0,-999.0,86,0.00,,,0.00,Wunderground v.1.15,2013-04-02 14:00:00,
2013-04-02 07:05:00,57.0,52.9,30.07,N/A,-737280,0.0,-999.0,86,0.00,,,0.00,Wunderground v.1.15,2013-04-02 14:05:00,
2013-04-02 07:10:00,57.0,52.9,30.07,N/A,-737280,0.0,-999.0,86,0.00,,,0.00,Wunderground v.1.15,2013-04-02 14:10:00,
2013-04-02 07:15:00,57.1,53.3,30.07,N/A,-737280,0.0,-999.0,87,0.00,,,0.00,Wunderground v.1.15,2013-04-02 14:15:00,
2013-04-02 07:20:00,57.1,53.3,30.07,N/A,-737280,0.0,-999.0,87,0.00,,,0.00,Wunderground v.1.15,2013-04-02 14:20:00,
2013-04-02 07:25:00,57.5,53.7,30.07,N/A,-737280,0.0,-999.0,87,0.00,,,0.00,Wunderground v.1.15,2013-04-02 14:25:00,
2013-04-02 07:30:00,57.5,53.7,30.07,N/A,-737280,0.0,-999.0,87,0.00,,,0.00,Wunderground v.1.15,2013-04-02 14:30:00,
2013-04-02 07:35:00,57.6,53.4,30.08,WNW,293,0.0,-999.0,86,0.00,,,0.00,Wunderground v.1.15,2013-04-02 14:35:00,
2013-04-02 07:40:00,57.6,53.4,30.08,WNW,293,0.0,-999.0,86,0.00,,,0.00,Wunderground v.1.15,2013-04-02 14:40:00,
2013-04-02 07:42:00,57.6,53.4,30.08,WNW,302,0.0,0.0,86,0.00,,,0.00,Wunderground v.1.15,2013-04-02 14:42:00,
2013-04-02 07:45:00,57.7,53.5,30.08,WNW,293,0.0,-999.0,86,0.00,,,0.00,Wunderground v.1.15,2013-04-02 14:45:00,
2013-04-02 07:48:00,57.7,53.5,30.08,WNW,302,0.0,0.0,86,0.00,,,0.00,Wunderground v.1.15,2013-04-02 14:48:00,
2013-04-02 07:50:00,57.7,53.5,30.08,WNW,293,0.0,-999.0,86,0.00,,,0.00,Wunderground v.1.15,2013-04-02 14:50:00,
2013-04-02 07:52:00,57.8,53.6,30.08,WNW,302,0.0,0.0,86,0.00,,,0.00,Wunderground v.1.15,2013-04-02 14:52:00,
2013-04-02 07:54:00,57.8,53.6,30.08,WNW,302,0.0,0.0,86,0.00,,,0.00,Wunderground v.1.15,2013-04-02 14:54:00,
2013-04-02 07:55:00,57.9,53.7,30.08,N/A,-737280,0.0,-999.0,86,0.00,,,0.00,Wunderground v.1.15,2013-04-02 14:55:00,
2013-04-02 07:56:00,57.8,53.6,30.08,WNW,302,0.0,0.0,86,0.00,,,0.00,Wunderground v.1.15,2013-04-02 14:56:00,
2013-04-02 08:00:00,57.9,53.7,30.08,WNW,302,0.0,0.0,86,0.00,,,0.00,Wunderground v.1.15,2013-04-02 15:00:00,
2013-04-02 08:02:00,57.9,53.7,30.08,WNW,302,0.0,0.0,86,0.00,,,0.00,Wunderground v.1.15,2013-04-02 15:02:00,
2013-04-02 08:05:00,58.1,53.9,30.08,WNW,293,0.0,-999.0,86,0.00,,,0.00,Wunderground v.1.15,2013-04-02 15:05:00,
2013-04-02 08:06:00,58.0,53.8,30.08,WNW,302,0.0,0.0,86,0.00,,,0.00,Wunderground v.1.15,2013-04-02 15:06:00,
2013-04-02 08:08:00,58.0,53.8,30.08,WNW,302,0.0,0.0,86,0.00,,,0.00,Wunderground v.1.15,2013-04-02 15:08:00,
2013-04-02 08:10:00,58.1,53.9,30.08,WNW,302,0.0,0.0,86,0.00,,,0.00,Wunderground v.1.15,2013-04-02 15:10:00,
2013-04-02 08:12:00,58.1,53.9,30.08,WNW,302,0.0,0.0,86,0.00,,,0.00,Wunderground v.1.15,2013-04-02 15:12:00,
2013-04-02 08:14:00,58.2,54.0,30.08,WNW,303,0.0,0.0,86,0.00,,,0.00,Wunderground v.1.15,2013-04-02 15:14:00,
2013-04-02 08:15:00,58.3,53.8,30.08,WNW,293,0.0,-999.0,85,0.00,,,0.00,Wunderground v.1.15,2013-04-02 15:15:00,
2013-04-02 08:18:00,58.2,53.7,30.08,WNW,302,0.0,0.0,85,0.00,,,0.00,Wunderground v.1.15,2013-04-02 15:18:00,
2013-04-02 08:20:00,58.3,53.8,30.08,WNW,302,0.0,0.0,85,0.00,,,0.00,Wunderground v.1.15,2013-04-02 15:20:00,
2013-04-02 08:22:00,58.3,53.8,30.08,WNW,302,0.0,0.0,85,0.00,,,0.00,Wunderground v.1.15,2013-04-02 15:22:00,
2013-04-02 08:24:00,58.4,53.9,30.08,NNW,345,0.0,0.0,85,0.00,,,0.00,Wunderground v.1.15,2013-04-02 15:24:00,
2013-04-02 08:25:00,58.6,54.1,30.08,NNW,338,0.0,-999.0,85,0.00,,,0.00,Wunderground v.1.15,2013-04-02 15:25:00,
2013-04-02 08:28:00,58.5,54.0,30.08,NNW,345,0.0,0.0,85,0.00,,,0.00,Wunderground v.1.15,2013-04-02 15:28:00,
2013-04-02 08:30:00,58.6,54.1,30.08,NNW,345,0.0,0.0,85,0.00,,,0.00,Wunderground v.1.15,2013-04-02 15:30:00,
2013-04-02 08:32:00,58.6,54.1,30.08,NNW,345,0.0,0.0,85,0.00,,,0.00,Wunderground v.1.15,2013-04-02 15:32:00,
2013-04-02 08:34:00,58.6,54.1,30.08,NNW,340,0.0,0.0,85,0.00,,,0.00,Wunderground v.1.15,2013-04-02 15:34:00,
2013-04-02 08:35:00,58.9,54.1,30.08,NNW,338,0.0,-999.0,84,0.00,,,0.00,Wunderground v.1.15,2013-04-02 15:35:00,
2013-04-02 08:36:00,58.7,54.2,30.08,West,267,0.0,0.0,85,0.00,,,0.00,Wunderground v.1.15,2013-04-02 15:36:00,
2013-04-02 08:40:00,58.9,54.1,30.08,West,267,0.0,0.0,84,0.00,,,0.00,Wunderground v.1.15,2013-04-02 15:40:00,
2013-04-02 08:42:00,58.9,54.1,30.08,West,267,0.0,0.0,84,0.00,,,0.00,Wunderground v.1.15,2013-04-02 15:42:00,
2013-04-02 08:45:00,59.3,54.5,30.08,West,270,0.0,-999.0,84,0.00,,,0.00,Wunderground v.1.15,2013-04-02 15:45:00,
2013-04-02 08:46:00,59.1,54.3,30.08,West,267,0.0,0.0,84,0.00,,,0.00,Wunderground v.1.15,2013-04-02 15:46:00,
2013-04-02 08:50:00,59.3,54.5,30.08,West,267,0.0,1.0,84,0.00,,,0.00,Wunderground v.1.15,2013-04-02 15:50:00,
2013-04-02 08:52:00,59.4,54.6,30.08,West,267,0.0,1.0,84,0.00,,,0.00,Wunderground v.1.15,2013-04-02 15:52:00,
2013-04-02 08:54:00,59.5,54.3,30.08,West,267,0.0,1.0,83,0.00,,,0.00,Wunderground v.1.15,2013-04-02 15:54:00,
2013-04-02 08:55:00,59.6,54.4,30.09,West,270,0.0,-999.0,83,0.00,,,0.00,Wunderground v.1.15,2013-04-02 15:55:00,
2013-04-02 08:58:00,59.5,54.3,30.09,West,266,0.0,2.0,83,0.00,,,0.00,Wunderground v.1.15,2013-04-02 15:58:00,
2013-04-02 09:00:00,59.7,54.5,30.09,West,266,0.0,0.0,83,0.00,,,0.00,Wunderground v.1.15,2013-04-02 16:00:00,
2013-04-02 09:02:00,59.7,54.5,30.09,West,266,0.0,0.0,83,0.00,,,0.00,Wunderground v.1.15,2013-04-02 16:02:00,
2013-04-02 09:05:00,60.0,54.5,30.09,West,270,1.0,-999.0,82,0.00,,,0.00,Wunderground v.1.15,2013-04-02 16:05:00,
2013-04-02 09:06:00,59.9,54.4,30.08,West,266,0.0,0.0,82,0.00,,,0.00,Wunderground v.1.15,2013-04-02 16:06:00,
2013-04-02 09:08:00,59.9,54.4,30.08,West,266,0.0,2.0,82,0.00,,,0.00,Wunderground v.1.15,2013-04-02 16:08:00,
2013-04-02 09:10:00,60.0,54.5,30.09,West,270,1.0,-999.0,82,0.00,,,0.00,Wunderground v.1.15,2013-04-02 16:10:00,
2013-04-02 09:14:00,60.1,54.6,30.09,West,263,2.0,3.0,82,0.00,,,0.00,Wunderground v.1.15,2013-04-02 16:14:00,
2013-04-02 09:15:00,60.0,54.5,30.09,SW,225,2.0,-999.0,82,0.00,,,0.00,Wunderground v.1.15,2013-04-02 16:15:00,
2013-04-02 09:18:00,60.0,54.5,30.09,SW,234,2.0,3.0,82,0.00,,,0.00,Wunderground v.1.15,2013-04-02 16:18:00,
2013-04-02 09:20:00,60.0,54.5,30.09,SW,234,2.0,3.0,82,0.00,,,0.00,Wunderground v.1.15,2013-04-02 16:20:00,
2013-04-02 09:22:00,60.0,54.5,30.09,SW,234,2.0,3.0,82,0.00,,,0.00,Wunderground v.1.15,2013-04-02 16:22:00,
2013-04-02 09:24:00,60.0,54.5,30.09,SW,234,2.0,3.0,82,0.00,,,0.00,Wunderground v.1.15,2013-04-02 16:24:00,
2013-04-02 09:25:00,60.0,54.5,30.09,SW,225,1.0,-999.0,82,0.00,,,0.00,Wunderground v.1.15,2013-04-02 16:25:00,
2013-04-02 09:26:00,60.0,54.5,30.09,SW,219,2.0,3.0,82,0.00,,,0.00,Wunderground v.1.15,2013-04-02 16:26:00,
2013-04-02 09:30:00,60.0,54.5,30.09,SW,219,1.0,1.0,82,0.00,,,0.00,Wunderground v.1.15,2013-04-02 16:30:00,
2013-04-02 09:32:00,60.0,54.5,30.09,SW,219,1.0,1.0,82,0.00,,,0.00,Wunderground v.1.15,2013-04-02 16:32:00,
2013-04-02 09:35:00,60.2,54.7,30.09,SW,225,0.0,-999.0,82,0.00,,,0.00,Wunderground v.1.15,2013-04-02 16:35:00,
2013-04-02 09:36:00,60.0,54.5,30.09,WSW,257,1.0,1.0,82,0.00,,,0.00,Wunderground v.1.15,2013-04-02 16:36:00,
2013-04-02 09:40:00,60.2,54.7,30.09,SW,225,0.0,-999.0,82,0.00,,,0.00,Wunderground v.1.15,2013-04-02 16:40:00,
2013-04-02 09:45:00,60.4,54.5,30.09,WSW,248,1.0,-999.0,81,0.00,,,0.00,Wunderground v.1.15,2013-04-02 16:45:00,
2013-04-02 09:50:00,60.4,54.5,30.09,WSW,248,1.0,-999.0,81,0.00,,,0.00,Wunderground v.1.15,2013-04-02 16:50:00,
2013-04-02 09:55:00,60.9,55.0,30.08,South,180,0.0,-999.0,81,0.00,,,0.00,Wunderground v.1.15,2013-04-02 16:55:00,
2013-04-02 10:00:00,60.9,55.0,30.08,South,180,0.0,-999.0,81,0.00,,,0.00,Wunderground v.1.15,2013-04-02 17:00:00,
2013-04-02 10:05:00,62.0,55.1,30.09,South,180,0.0,-999.0,78,0.00,,,0.00,Wunderground v.1.15,2013-04-02 17:05:00,
2013-04-02 10:10:00,62.0,55.1,30.09,South,180,0.0,-999.0,78,0.00,,,0.00,Wunderground v.1.15,2013-04-02 17:10:00,
2013-04-02 10:15:00,62.2,54.9,30.08,South,180,1.0,-999.0,77,0.00,,,0.00,Wunderground v.1.15,2013-04-02 17:15:00,
2013-04-02 10:20:00,62.2,54.9,30.08,South,180,1.0,-999.0,77,0.00,,,0.00,Wunderground v.1.15,2013-04-02 17:20:00,
2013-04-02 10:25:00,62.1,54.8,30.09,SW,225,1.0,-999.0,77,0.00,,,0.00,Wunderground v.1.15,2013-04-02 17:25:00,
2013-04-02 10:30:00,62.1,54.8,30.09,SW,225,1.0,-999.0,77,0.00,,,0.00,Wunderground v.1.15,2013-04-02 17:30:00,
2013-04-02 10:35:00,61.6,54.3,30.09,SSW,203,2.0,-999.0,77,0.00,,,0.00,Wunderground v.1.15,2013-04-02 17:35:00,
2013-04-02 10:40:00,61.6,54.3,30.09,SSW,203,2.0,-999.0,77,0.00,,,0.00,Wunderground v.1.15,2013-04-02 17:40:00,
2013-04-02 10:45:00,61.4,54.1,30.09,South,180,3.0,-999.0,77,0.00,,,0.00,Wunderground v.1.15,2013-04-02 17:45:00,
2013-04-02 10:50:00,61.4,54.1,30.09,South,180,3.0,-999.0,77,0.00,,,0.00,Wunderground v.1.15,2013-04-02 17:50:00,
2013-04-02 10:55:00,61.4,53.8,30.09,SW,225,3.0,-999.0,76,0.00,,,0.00,Wunderground v.1.15,2013-04-02 17:55:00,
2013-04-02 11:00:00,61.4,53.8,30.09,SW,225,3.0,-999.0,76,0.00,,,0.00,Wunderground v.1.15,2013-04-02 18:00:00,
2013-04-02 11:05:00,61.9,54.2,30.08,SSW,203,1.0,-999.0,76,0.00,,,0.00,Wunderground v.1.15,2013-04-02 18:05:00,
2013-04-02 11:10:00,61.9,54.2,30.08,SSW,203,1.0,-999.0,76,0.00,,,0.00,Wunderground v.1.15,2013-04-02 18:10:00,
2013-04-02 11:15:00,62.5,54.1,30.08,SSW,203,2.0,-999.0,74,0.00,,,0.00,Wunderground v.1.15,2013-04-02 18:15:00,
2013-04-02 11:20:00,62.5,54.1,30.08,SSW,203,2.0,-999.0,74,0.00,,,0.00,Wunderground v.1.15,2013-04-02 18:20:00,
2013-04-02 11:25:00,62.7,53.9,30.08,SW,225,3.0,-999.0,73,0.00,,,0.00,Wunderground v.1.15,2013-04-02 18:25:00,
2013-04-02 11:30:00,62.7,53.9,30.08,SW,225,3.0,-999.0,73,0.00,,,0.00,Wunderground v.1.15,2013-04-02 18:30:00,
2013-04-02 11:35:00,63.3,54.5,30.08,South,180,2.0,-999.0,73,0.00,,,0.00,Wunderground v.1.15,2013-04-02 18:35:00,
2013-04-02 11:40:00,63.3,54.5,30.08,South,180,2.0,-999.0,73,0.00,,,0.00,Wunderground v.1.15,2013-04-02 18:40:00,
2013-04-02 11:45:00,64.6,55.0,30.07,SSW,203,2.0,-999.0,71,0.00,,,0.00,Wunderground v.1.15,2013-04-02 18:45:00,
2013-04-02 11:50:00,64.6,55.0,30.07,SSW,203,2.0,-999.0,71,0.00,,,0.00,Wunderground v.1.15,2013-04-02 18:50:00,
2013-04-02 11:55:00,65.0,55.4,30.07,SW,225,2.0,-999.0,71,0.00,,,0.00,Wunderground v.1.15,2013-04-02 18:55:00,
2013-04-02 12:00:00,65.0,55.4,30.07,SW,225,2.0,-999.0,71,0.00,,,0.00,Wunderground v.1.15,2013-04-02 19:00:00,
2013-04-02 12:05:00,65.7,55.6,30.07,West,270,1.0,-999.0,70,0.00,,,0.00,Wunderground v.1.15,2013-04-02 19:05:00,
2013-04-02 12:10:00,65.7,55.6,30.07,West,270,1.0,-999.0,70,0.00,,,0.00,Wunderground v.1.15,2013-04-02 19:10:00,
2013-04-02 12:15:00,65.8,55.3,30.07,SW,225,3.0,-999.0,69,0.00,,,0.00,Wunderground v.1.15,2013-04-02 19:15:00,
2013-04-02 12:20:00,65.8,55.3,30.07,SW,225,3.0,-999.0,69,0.00,,,0.00,Wunderground v.1.15,2013-04-02 19:20:00,
2013-04-02 12:25:00,66.7,56.2,30.06,SW,225,2.0,-999.0,69,0.00,,,0.00,Wunderground v.1.15,2013-04-02 19:25:00,
2013-04-02 12:30:00,66.7,56.2,30.06,SW,225,2.0,-999.0,69,0.00,,,0.00,Wunderground v.1.15,2013-04-02 19:30:00,
2013-04-02 12:35:00,65.9,55.4,30.06,SW,225,4.0,-999.0,69,0.00,,,0.00,Wunderground v.1.15,2013-04-02 19:35:00,
2013-04-02 12:40:00,65.9,55.4,30.06,SW,225,4.0,-999.0,69,0.00,,,0.00,Wunderground v.1.15,2013-04-02 19:40:00,
2013-04-02 12:45:00,66.9,56.0,30.06,SSE,158,2.0,-999.0,68,0.00,,,0.00,Wunderground v.1.15,2013-04-02 19:45:00,
2013-04-02 12:50:00,66.9,56.0,30.06,SSE,158,2.0,-999.0,68,0.00,,,0.00,Wunderground v.1.15,2013-04-02 19:50:00,
2013-04-02 12:55:00,66.9,55.6,30.05,SSW,203,3.0,-999.0,67,0.00,,,0.00,Wunderground v.1.15,2013-04-02 19:55:00,
2013-04-02 13:00:00,66.9,55.6,30.05,SSW,203,3.0,-999.0,67,0.00,,,0.00,Wunderground v.1.15,2013-04-02 20:00:00,
2013-04-02 13:05:00,66.4,55.1,30.05,SW,225,4.0,-999.0,67,0.00,,,0.00,Wunderground v.1.15,2013-04-02 20:05:00,
2013-04-02 13:10:00,66.4,55.1,30.05,SW,225,4.0,-999.0,67,0.00,,,0.00,Wunderground v.1.15,2013-04-02 20:10:00,
2013-04-02 13:15:00,66.4,55.5,30.05,SW,225,4.0,-999.0,68,0.00,,,0.00,Wunderground v.1.15,2013-04-02 20:15:00,
2013-04-02 13:20:00,66.4,55.5,30.05,SW,225,4.0,-999.0,68,0.00,,,0.00,Wunderground v.1.15,2013-04-02 20:20:00,
2013-04-02 13:25:00,65.9,55.0,30.04,SW,225,4.0,-999.0,68,0.00,,,0.00,Wunderground v.1.15,2013-04-02 20:25:00,
2013-04-02 13:30:00,65.9,55.0,30.04,SW,225,4.0,-999.0,68,0.00,,,0.00,Wunderground v.1.15,2013-04-02 20:30:00,
2013-04-02 13:35:00,66.2,55.3,30.03,SSW,203,4.0,-999.0,68,0.00,,,0.00,Wunderground v.1.15,2013-04-02 20:35:00,
2013-04-02 13:40:00,66.2,55.3,30.03,SSW,203,4.0,-999.0,68,0.00,,,0.00,Wunderground v.1.15,2013-04-02 20:40:00,
2013-04-02 13:45:00,66.4,55.5,30.03,SSW,203,4.0,-999.0,68,0.00,,,0.00,Wunderground v.1.15,2013-04-02 20:45:00,
2013-04-02 13:50:00,66.4,55.5,30.03,SSW,203,4.0,-999.0,68,0.00,,,0.00,Wunderground v.1.15,2013-04-02 20:50:00,
2013-04-02 13:55:00,66.1,55.2,30.03,SSW,203,5.0,-999.0,68,0.00,,,0.00,Wunderground v.1.15,2013-04-02 20:55:00,
2013-04-02 14:00:00,66.1,55.2,30.03,SSW,203,5.0,-999.0,68,0.00,,,0.00,Wunderground v.1.15,2013-04-02 21:00:00,
2013-04-02 14:05:00,66.7,55.4,30.03,SSW,203,3.0,-999.0,67,0.00,,,0.00,Wunderground v.1.15,2013-04-02 21:05:00,
2013-04-02 14:10:00,66.7,55.4,30.03,SSW,203,3.0,-999.0,67,0.00,,,0.00,Wunderground v.1.15,2013-04-02 21:10:00,
2013-04-02 14:15:00,67.3,55.1,30.02,SW,225,4.0,-999.0,65,0.00,,,0.00,Wunderground v.1.15,2013-04-02 21:15:00,
2013-04-02 14:20:00,67.3,55.1,30.02,SW,225,4.0,-999.0,65,0.00,,,0.00,Wunderground v.1.15,2013-04-02 21:20:00,
2013-04-02 14:25:00,66.7,56.2,30.02,SW,225,5.0,-999.0,69,0.00,,,0.00,Wunderground v.1.15,2013-04-02 21:25:00,
2013-04-02 14:30:00,66.7,56.2,30.02,SW,225,5.0,-999.0,69,0.00,,,0.00,Wunderground v.1.15,2013-04-02 21:30:00,
2013-04-02 14:32:00,66.7,55.8,30.02,SW,227,5.0,12.0,68,0.00,,,0.00,Wunderground v.1.15,2013-04-02 21:32:00,
2013-04-02 14:35:00,66.1,56.0,30.02,SW,225,5.0,-999.0,70,0.00,,,0.00,Wunderground v.1.15,2013-04-02 21:35:00,
2013-04-02 14:40:00,66.1,56.0,30.02,SW,225,5.0,-999.0,70,0.00,,,0.00,Wunderground v.1.15,2013-04-02 21:40:00,
2013-04-02 14:45:00,66.1,56.0,30.02,SW,225,5.0,-999.0,70,0.00,,,0.00,Wunderground v.1.15,2013-04-02 21:45:00,
2013-04-02 14:50:00,66.6,55.7,30.01,SW,225,3.0,-999.0,68,0.00,,,0.00,Wunderground v.1.15,2013-04-02 21:50:00,
2013-04-02 14:52:00,66.6,55.7,30.01,SW,222,4.0,5.0,68,0.00,,,0.00,Wunderground v.1.15,2013-04-02 21:52:00,
2013-04-02 14:55:00,66.5,56.0,30.01,SW,225,4.0,-999.0,69,0.00,,,0.00,Wunderground v.1.15,2013-04-02 21:55:00,
2013-04-02 14:56:00,66.3,55.8,30.01,SW,223,4.0,5.0,69,0.00,,,0.00,Wunderground v.1.15,2013-04-02 21:56:00,
2013-04-02 14:58:00,66.4,55.9,30.01,SSW,213,4.0,5.0,69,0.00,,,0.00,Wunderground v.1.15,2013-04-02 21:58:00,
2013-04-02 15:00:00,66.5,56.0,30.01,SW,225,4.0,-999.0,69,0.00,,,0.00,Wunderground v.1.15,2013-04-02 22:00:00,
2013-04-02 15:04:00,66.7,55.8,30.01,South,188,4.0,6.0,68,0.00,,,0.00,Wunderground v.1.15,2013-04-02 22:04:00,
2013-04-02 15:05:00,67.0,55.7,30.00,SSW,203,4.0,-999.0,67,0.00,,,0.00,Wunderground v.1.15,2013-04-02 22:05:00,
2013-04-02 15:06:00,66.8,55.9,30.01,SW,216,4.0,6.0,68,0.00,,,0.00,Wunderground v.1.15,2013-04-02 22:06:00,
2013-04-02 15:08:00,67.0,56.1,30.00,SW,227,4.0,6.0,68,0.00,,,0.00,Wunderground v.1.15,2013-04-02 22:08:00,
2013-04-02 15:10:00,67.0,56.1,30.00,SSW,197,4.0,7.0,68,0.00,,,0.00,Wunderground v.1.15,2013-04-02 22:10:00,
2013-04-02 15:12:00,66.9,55.6,30.00,SW,224,4.0,7.0,67,0.00,,,0.00,Wunderground v.1.15,2013-04-02 22:12:00,
2013-04-02 15:14:00,66.7,55.8,30.00,WSW,249,4.0,7.0,68,0.00,,,0.00,Wunderground v.1.15,2013-04-02 22:14:00,
2013-04-02 15:15:00,66.3,55.8,30.00,SW,225,5.0,-999.0,69,0.00,,,0.00,Wunderground v.1.15,2013-04-02 22:15:00,
2013-04-02 15:18:00,66.5,56.0,30.00,SW,219,5.0,7.0,69,0.00,,,0.00,Wunderground v.1.15,2013-04-02 22:18:00,
2013-04-02 15:20:00,66.3,55.8,30.00,SW,227,5.0,5.0,69,0.00,,,0.00,Wunderground v.1.15,2013-04-02 22:20:00,
2013-04-02 15:24:00,66.3,55.8,30.00,SSW,200,5.0,5.0,69,0.00,,,0.00,Wunderground v.1.15,2013-04-02 22:24:00,
2013-04-02 15:25:00,66.5,56.0,30.00,SSW,203,4.0,-999.0,69,0.00,,,0.00,Wunderground v.1.15,2013-04-02 22:25:00,
2013-04-02 15:26:00,66.4,56.3,30.00,SW,234,5.0,5.0,70,0.00,,,0.00,Wunderground v.1.15,2013-04-02 22:26:00,
2013-04-02 15:28:00,66.4,56.3,30.00,SSW,198,5.0,6.0,70,0.00,,,0.00,Wunderground v.1.15,2013-04-02 22:28:00,
2013-04-02 15:30:00,66.5,56.0,30.00,SSW,203,4.0,-999.0,69,0.00,,,0.00,Wunderground v.1.15,2013-04-02 22:30:00,
2013-04-02 15:32:00,66.5,56.0,30.00,SW,234,5.0,5.0,69,0.00,,,0.00,Wunderground v.1.15,2013-04-02 22:32:00,
2013-04-02 15:35:00,66.1,56.0,30.00,SSW,203,4.0,-999.0,70,0.00,,,0.00,Wunderground v.1.15,2013-04-02 22:35:00,
2013-04-02 15:40:00,66.1,56.0,30.00,SSW,203,4.0,-999.0,70,0.00,,,0.00,Wunderground v.1.15,2013-04-02 22:40:00,
2013-04-02 15:45:00,66.1,55.6,29.99,SW,225,5.0,-999.0,69,0.00,,,0.00,Wunderground v.1.15,2013-04-02 22:45:00,
2013-04-02 15:50:00,66.1,55.6,29.99,SW,225,5.0,-999.0,69,0.00,,,0.00,Wunderground v.1.15,2013-04-02 22:50:00,
2013-04-02 15:55:00,66.8,55.9,29.99,SSW,203,4.0,-999.0,68,0.00,,,0.00,Wunderground v.1.15,2013-04-02 22:55:00,
2013-04-02 16:00:00,66.8,55.9,29.99,SSW,203,4.0,-999.0,68,0.00,,,0.00,Wunderground v.1.15,2013-04-02 23:00:00,
2013-04-02 16:05:00,66.4,55.9,29.99,SW,225,5.0,-999.0,69,0.00,,,0.00,Wunderground v.1.15,2013-04-02 23:05:00,
2013-04-02 16:10:00,66.4,55.9,29.99,SW,225,5.0,-999.0,69,0.00,,,0.00,Wunderground v.1.15,2013-04-02 23:10:00,
2013-04-02 16:15:00,65.7,55.6,29.99,SSW,203,5.0,-999.0,70,0.00,,,0.00,Wunderground v.1.15,2013-04-02 23:15:00,
2013-04-02 16:20:00,65.7,55.6,29.99,SSW,203,5.0,-999.0,70,0.00,,,0.00,Wunderground v.1.15,2013-04-02 23:20:00,
2013-04-02 16:25:00,66.5,55.6,29.99,South,180,3.0,-999.0,68,0.00,,,0.00,Wunderground v.1.15,2013-04-02 23:25:00,
2013-04-02 16:30:00,66.5,55.6,29.99,South,180,3.0,-999.0,68,0.00,,,0.00,Wunderground v.1.15,2013-04-02 23:30:00,
2013-04-02 16:35:00,66.5,55.6,29.99,SW,225,4.0,-999.0,68,0.00,,,0.00,Wunderground v.1.15,2013-04-02 23:35:00,
2013-04-02 16:40:00,66.5,55.6,29.99,SW,225,4.0,-999.0,68,0.00,,,0.00,Wunderground v.1.15,2013-04-02 23:40:00,
2013-04-02 16:45:00,66.8,55.9,29.98,SW,225,3.0,-999.0,68,0.00,,,0.00,Wunderground v.1.15,2013-04-02 23:45:00,
2013-04-02 16:50:00,66.8,55.9,29.98,SW,225,3.0,-999.0,68,0.00,,,0.00,Wunderground v.1.15,2013-04-02 23:50:00,
2013-04-02 16:55:00,66.8,55.9,29.98,SW,225,4.0,-999.0,68,0.00,,,0.00,Wunderground v.1.15,2013-04-02 23:55:00,
2013-04-02 17:00:00,66.8,55.9,29.98,SW,225,4.0,-999.0,68,0.00,,,0.00,Wunderground v.1.15,2013-04-03 00:00:00,
2013-04-02 17:05:00,66.1,55.6,29.98,SW,225,4.0,-999.0,69,0.00,,,0.00,Wunderground v.1.15,2013-04-03 00:05:00,
2013-04-02 17:10:00,66.1,55.6,29.98,SW,225,4.0,-999.0,69,0.00,,,0.00,Wunderground v.1.15,2013-04-03 00:10:00,
2013-04-02 17:15:00,66.2,55.7,29.98,SW,225,3.0,-999.0,69,0.00,,,0.00,Wunderground v.1.15,2013-04-03 00:15:00,
2013-04-02 17:20:00,66.2,55.7,29.98,SW,225,3.0,-999.0,69,0.00,,,0.00,Wunderground v.1.15,2013-04-03 00:20:00,
2013-04-02 17:25:00,65.7,55.6,29.99,SW,225,4.0,-999.0,70,0.00,,,0.00,Wunderground v.1.15,2013-04-03 00:25:00,
2013-04-02 17:30:00,65.7,55.6,29.99,SW,225,4.0,-999.0,70,0.00,,,0.00,Wunderground v.1.15,2013-04-03 00:30:00,
2013-04-02 17:35:00,65.3,56.0,29.99,South,180,4.0,-999.0,72,0.00,,,0.00,Wunderground v.1.15,2013-04-03 00:35:00,
2013-04-02 17:40:00,65.3,56.0,29.99,South,180,4.0,-999.0,72,0.00,,,0.00,Wunderground v.1.15,2013-04-03 00:40:00,
2013-04-02 17:45:00,65.0,56.5,29.99,SW,225,3.0,-999.0,74,0.00,,,0.00,Wunderground v.1.15,2013-04-03 00:45:00,
2013-04-02 17:50:00,65.0,56.5,29.99,SW,225,3.0,-999.0,74,0.00,,,0.00,Wunderground v.1.15,2013-04-03 00:50:00,
2013-04-02 17:55:00,65.3,56.8,29.99,SSW,203,2.0,-999.0,74,0.00,,,0.00,Wunderground v.1.15,2013-04-03 00:55:00,
2013-04-02 18:00:00,65.3,56.8,29.99,SSW,203,2.0,-999.0,74,0.00,,,0.00,Wunderground v.1.15,2013-04-03 01:00:00,
2013-04-02 18:05:00,66.1,57.6,29.99,SSW,203,0.0,-999.0,74,0.00,,,0.00,Wunderground v.1.15,2013-04-03 01:05:00,
2013-04-02 18:08:00,65.9,57.4,29.99,SSW,211,1.0,1.0,74,0.00,,,0.00,Wunderground v.1.15,2013-04-03 01:08:00,
2013-04-02 18:10:00,66.1,57.6,29.99,SSW,211,0.0,0.0,74,0.00,,,0.00,Wunderground v.1.15,2013-04-03 01:10:00,
2013-04-02 18:12:00,66.3,57.4,29.99,SSW,211,0.0,0.0,73,0.00,,,0.00,Wunderground v.1.15,2013-04-03 01:12:00,
2013-04-02 18:14:00,66.5,57.6,29.99,SSW,211,0.0,0.0,73,0.00,,,0.00,Wunderground v.1.15,2013-04-03 01:14:00,
2013-04-02 18:15:00,66.9,57.6,29.99,SSW,203,0.0,-999.0,72,0.00,,,0.00,Wunderground v.1.15,2013-04-03 01:15:00,
2013-04-02 18:20:00,66.9,57.6,29.99,SSW,203,0.0,-999.0,72,0.00,,,0.00,Wunderground v.1.15,2013-04-03 01:20:00,
2013-04-02 18:22:00,67.1,57.4,29.99,NNW,327,0.0,3.0,71,0.00,,,0.00,Wunderground v.1.15,2013-04-03 01:22:00,
2013-04-02 18:24:00,67.2,55.0,29.99,NW,309,0.0,3.0,65,0.00,,,0.00,Wunderground v.1.15,2013-04-03 01:24:00,
2013-04-02 18:25:00,67.5,54.0,29.99,NW,315,2.0,-999.0,62,0.00,,,0.00,Wunderground v.1.15,2013-04-03 01:25:00,
2013-04-02 18:28:00,67.4,54.4,29.99,NW,306,1.0,3.0,63,0.00,,,0.00,Wunderground v.1.15,2013-04-03 01:28:00,
2013-04-02 18:30:00,67.5,54.0,29.99,NW,315,2.0,-999.0,62,0.00,,,0.00,Wunderground v.1.15,2013-04-03 01:30:00,
2013-04-02 18:35:00,67.3,54.3,29.99,WNW,293,2.0,-999.0,63,0.00,,,0.00,Wunderground v.1.15,2013-04-03 01:35:00,
2013-04-02 18:40:00,67.3,54.3,29.99,WNW,293,2.0,-999.0,63,0.00,,,0.00,Wunderground v.1.15,2013-04-03 01:40:00,
2013-04-02 18:45:00,66.8,53.8,30.00,NW,315,2.0,-999.0,63,0.00,,,0.00,Wunderground v.1.15,2013-04-03 01:45:00,
2013-04-02 18:50:00,66.8,53.8,30.00,NW,315,2.0,-999.0,63,0.00,,,0.00,Wunderground v.1.15,2013-04-03 01:50:00,
2013-04-02 18:55:00,66.2,53.7,30.00,WNW,293,2.0,-999.0,64,0.00,,,0.00,Wunderground v.1.15,2013-04-03 01:55:00,
2013-04-02 19:00:00,66.2,53.7,30.00,WNW,293,2.0,-999.0,64,0.00,,,0.00,Wunderground v.1.15,2013-04-03 02:00:00,
2013-04-02 19:05:00,65.5,53.0,30.00,West,270,2.0,-999.0,64,0.00,,,0.00,Wunderground v.1.15,2013-04-03 02:05:00,
2013-04-02 19:10:00,65.5,53.0,30.00,West,270,2.0,-999.0,64,0.00,,,0.00,Wunderground v.1.15,2013-04-03 02:10:00,
2013-04-02 19:15:00,64.8,53.6,30.00,West,270,2.0,-999.0,67,0.00,,,0.00,Wunderground v.1.15,2013-04-03 02:15:00,
2013-04-02 19:20:00,64.8,53.6,30.00,West,270,2.0,-999.0,67,0.00,,,0.00,Wunderground v.1.15,2013-04-03 02:20:00,
2013-04-02 19:25:00,64.1,53.7,30.00,West,270,2.0,-999.0,69,0.00,,,0.00,Wunderground v.1.15,2013-04-03 02:25:00,
2013-04-02 19:30:00,64.1,53.7,30.00,West,270,2.0,-999.0,69,0.00,,,0.00,Wunderground v.1.15,2013-04-03 02:30:00,
2013-04-02 19:35:00,63.7,53.7,30.00,WNW,293,2.0,-999.0,70,0.00,,,0.00,Wunderground v.1.15,2013-04-03 02:35:00,
2013-04-02 19:40:00,63.7,53.7,30.00,WNW,293,2.0,-999.0,70,0.00,,,0.00,Wunderground v.1.15,2013-04-03 02:40:00,
2013-04-02 19:45:00,63.4,53.8,30.00,WNW,293,1.0,-999.0,71,0.00,,,0.00,Wunderground v.1.15,2013-04-03 02:45:00,
2013-04-02 19:50:00,63.4,53.8,30.00,WNW,293,1.0,-999.0,71,0.00,,,0.00,Wunderground v.1.15,2013-04-03 02:50:00,
2013-04-02 19:55:00,62.9,54.1,30.00,West,270,2.0,-999.0,73,0.00,,,0.00,Wunderground v.1.15,2013-04-03 02:55:00,
2013-04-02 20:00:00,62.9,54.1,30.00,West,270,2.0,-999.0,73,0.00,,,0.00,Wunderground v.1.15,2013-04-03 03:00:00,
2013-04-02 20:05:00,62.3,54.3,30.01,West,270,2.0,-999.0,75,0.00,,,0.00,Wunderground v.1.15,2013-04-03 03:05:00,
2013-04-02 20:10:00,62.3,54.3,30.01,West,270,2.0,-999.0,75,0.00,,,0.00,Wunderground v.1.15,2013-04-03 03:10:00,
2013-04-02 20:15:00,61.7,54.4,30.01,WNW,293,2.0,-999.0,77,0.00,,,0.00,Wunderground v.1.15,2013-04-03 03:15:00,
2013-04-02 20:20:00,61.7,54.4,30.01,WNW,293,2.0,-999.0,77,0.00,,,0.00,Wunderground v.1.15,2013-04-03 03:20:00,
2013-04-02 20:25:00,61.2,54.6,30.01,WNW,293,1.0,-999.0,79,0.00,,,0.00,Wunderground v.1.15,2013-04-03 03:25:00,
2013-04-02 20:30:00,61.2,54.6,30.01,WNW,293,1.0,-999.0,79,0.00,,,0.00,Wunderground v.1.15,2013-04-03 03:30:00,
2013-04-02 20:35:00,60.8,54.6,30.01,WNW,293,0.0,-999.0,80,0.00,,,0.00,Wunderground v.1.15,2013-04-03 03:35:00,
2013-04-02 20:40:00,60.8,54.6,30.01,WNW,293,0.0,-999.0,80,0.00,,,0.00,Wunderground v.1.15,2013-04-03 03:40:00,
2013-04-02 20:45:00,60.4,54.2,30.02,WNW,293,0.0,-999.0,80,0.00,,,0.00,Wunderground v.1.15,2013-04-03 03:45:00,
2013-04-02 20:50:00,60.4,54.2,30.02,WNW,293,0.0,-999.0,80,0.00,,,0.00,Wunderground v.1.15,2013-04-03 03:50:00,
2013-04-02 20:55:00,59.9,53.7,30.03,WNW,293,0.0,-999.0,80,0.00,,,0.00,Wunderground v.1.15,2013-04-03 03:55:00,
2013-04-02 21:00:00,59.9,53.7,30.03,WNW,293,0.0,-999.0,80,0.00,,,0.00,Wunderground v.1.15,2013-04-03 04:00:00,
2013-04-02 21:05:00,59.6,53.8,30.03,N/A,-737280,0.0,-999.0,81,0.00,,,0.00,Wunderground v.1.15,2013-04-03 04:05:00,
2013-04-02 21:10:00,59.6,53.8,30.03,N/A,-737280,0.0,-999.0,81,0.00,,,0.00,Wunderground v.1.15,2013-04-03 04:10:00,
2013-04-02 21:15:00,59.3,53.8,30.04,WNW,293,0.0,-999.0,82,0.00,,,0.00,Wunderground v.1.15,2013-04-03 04:15:00,
2013-04-02 21:20:00,59.3,53.8,30.04,WNW,293,0.0,-999.0,82,0.00,,,0.00,Wunderground v.1.15,2013-04-03 04:20:00,
2013-04-02 21:25:00,59.0,53.5,30.04,N/A,-737280,0.0,-999.0,82,0.00,,,0.00,Wunderground v.1.15,2013-04-03 04:25:00,
2013-04-02 21:30:00,59.0,53.5,30.04,N/A,-737280,0.0,-999.0,82,0.00,,,0.00,Wunderground v.1.15,2013-04-03 04:30:00,
2013-04-02 21:35:00,58.7,53.5,30.04,N/A,-737280,0.0,-999.0,83,0.00,,,0.00,Wunderground v.1.15,2013-04-03 04:35:00,
2013-04-02 21:40:00,58.7,53.5,30.04,N/A,-737280,0.0,-999.0,83,0.00,,,0.00,Wunderground v.1.15,2013-04-03 04:40:00,
2013-04-02 21:45:00,58.4,53.3,30.04,N/A,-737280,0.0,-999.0,83,0.00,,,0.00,Wunderground v.1.15,2013-04-03 04:45:00,
2013-04-02 21:50:00,58.4,53.3,30.04,N/A,-737280,0.0,-999.0,83,0.00,,,0.00,Wunderground v.1.15,2013-04-03 04:50:00,
2013-04-02 21:55:00,58.2,53.4,30.04,N/A,-737280,0.0,-999.0,84,0.00,,,0.00,Wunderground v.1.15,2013-04-03 04:55:00,
2013-04-02 22:00:00,58.2,53.4,30.04,N/A,-737280,0.0,-999.0,84,0.00,,,0.00,Wunderground v.1.15,2013-04-03 05:00:00,
2013-04-02 22:05:00,58.1,53.3,30.04,N/A,-737280,0.0,-999.0,84,0.00,,,0.00,Wunderground v.1.15,2013-04-03 05:05:00,
2013-04-02 22:10:00,58.1,53.3,30.04,N/A,-737280,0.0,-999.0,84,0.00,,,0.00,Wunderground v.1.15,2013-04-03 05:10:00,
2013-04-02 22:15:00,58.1,53.3,30.04,N/A,-737280,0.0,-999.0,84,0.00,,,0.00,Wunderground v.1.15,2013-04-03 05:15:00,
2013-04-02 22:20:00,58.1,53.3,30.04,N/A,-737280,0.0,-999.0,84,0.00,,,0.00,Wunderground v.1.15,2013-04-03 05:20:00,
2013-04-02 22:25:00,57.9,53.1,30.04,N/A,-737280,0.0,-999.0,84,0.00,,,0.00,Wunderground v.1.15,2013-04-03 05:25:00,
2013-04-02 22:30:00,57.9,53.1,30.04,N/A,-737280,0.0,-999.0,84,0.00,,,0.00,Wunderground v.1.15,2013-04-03 05:30:00,
2013-04-02 22:35:00,57.7,52.9,30.04,N/A,-737280,0.0,-999.0,84,0.00,,,0.00,Wunderground v.1.15,2013-04-03 05:35:00,
2013-04-02 22:40:00,57.7,52.9,30.04,N/A,-737280,0.0,-999.0,84,0.00,,,0.00,Wunderground v.1.15,2013-04-03 05:40:00,
2013-04-02 22:45:00,57.3,52.5,30.04,N/A,-737280,0.0,-999.0,84,0.00,,,0.00,Wunderground v.1.15,2013-04-03 05:45:00,
2013-04-02 22:50:00,57.3,52.5,30.04,N/A,-737280,0.0,-999.0,84,0.00,,,0.00,Wunderground v.1.15,2013-04-03 05:50:00,
2013-04-02 22:55:00,57.1,53.0,30.04,N/A,-737280,0.0,-999.0,86,0.00,,,0.00,Wunderground v.1.15,2013-04-03 05:55:00,
2013-04-02 23:00:00,57.1,53.0,30.04,N/A,-737280,0.0,-999.0,86,0.00,,,0.00,Wunderground v.1.15,2013-04-03 06:00:00,
2013-04-02 23:05:00,57.0,52.9,30.04,N/A,-737280,0.0,-999.0,86,0.00,,,0.00,Wunderground v.1.15,2013-04-03 06:05:00,
2013-04-02 23:10:00,57.0,52.9,30.04,N/A,-737280,0.0,-999.0,86,0.00,,,0.00,Wunderground v.1.15,2013-04-03 06:10:00,
2013-04-02 23:15:00,56.7,52.6,30.04,N/A,-737280,0.0,-999.0,86,0.00,,,0.00,Wunderground v.1.15,2013-04-03 06:15:00,
2013-04-02 23:20:00,56.7,52.6,30.04,N/A,-737280,0.0,-999.0,86,0.00,,,0.00,Wunderground v.1.15,2013-04-03 06:20:00,
2013-04-02 23:25:00,56.5,52.7,30.04,N/A,-737280,0.0,-999.0,87,0.00,,,0.00,Wunderground v.1.15,2013-04-03 06:25:00,
2013-04-02 23:30:00,56.5,52.7,30.04,N/A,-737280,0.0,-999.0,87,0.00,,,0.00,Wunderground v.1.15,2013-04-03 06:30:00,
2013-04-02 23:32:00,56.5,52.7,30.04,WNW,297,0.0,0.0,87,0.00,,,0.00,Wunderground v.1.15,2013-04-03 06:32:00,
2013-04-02 23:34:00,56.4,52.6,30.04,WNW,297,0.0,0.0,87,0.00,,,0.00,Wunderground v.1.15,2013-04-03 06:34:00,
2013-04-02 23:35:00,56.3,52.5,30.03,N/A,-737280,0.0,-999.0,87,0.00,,,0.00,Wunderground v.1.15,2013-04-03 06:35:00,
2013-04-02 23:38:00,56.3,52.5,30.03,WNW,297,0.0,0.0,87,0.00,,,0.00,Wunderground v.1.15,2013-04-03 06:38:00,
2013-04-02 23:40:00,56.3,52.5,30.03,N/A,-737280,0.0,-999.0,87,0.00,,,0.00,Wunderground v.1.15,2013-04-03 06:40:00,
2013-04-02 23:42:00,56.2,52.4,30.03,WNW,297,0.0,0.0,87,0.00,,,0.00,Wunderground v.1.15,2013-04-03 06:42:00,
2013-04-02 23:45:00,56.1,52.3,30.03,N/A,-737280,0.0,-999.0,87,0.00,,,0.00,Wunderground v.1.15,2013-04-03 06:45:00,
2013-04-02 23:46:00,56.2,52.4,30.03,WNW,297,0.0,0.0,87,0.00,,,0.00,Wunderground v.1.15,2013-04-03 06:46:00,
2013-04-02 23:48:00,56.2,52.4,30.03,WNW,297,0.0,0.0,87,0.00,,,0.00,Wunderground v.1.15,2013-04-03 06:48:00,
2013-04-02 23:50:00,56.1,52.3,30.03,N/A,-737280,0.0,-999.0,87,0.00,,,0.00,Wunderground v.1.15,2013-04-03 06:50:00,
2013-04-02 23:52:00,56.1,52.3,30.04,WNW,297,0.0,0.0,87,0.00,,,0.00,Wunderground v.1.15,2013-04-03 06:52:00,
2013-04-02 23:55:00,56.0,52.5,30.03,N/A,-737280,0.0,-999.0,88,0.00,,,0.00,Wunderground v.1.15,2013-04-03 06:55:00,
2013-04-02 23:56:00,56.0,52.5,30.04,WNW,297,0.0,0.0,88,0.00,,,0.00,Wunderground v.1.15,2013-04-03 06:56:00,